Ta-cho-shui, Taiwan
Current Conditions -  °F | °C
As of 9:30 PM on Monday 24 Nov 2014 (Local Time) from RCSS Reporting Station
Haze Haze  
Wind Chill: 72°   Ceiling: Unl
Heat Index: 72°   Visibility: 2.8mi
Dew Point: 64°   Wind: 1mph
Humidity: 78%   Direction: 90°E
Pressure: 29.97"   Gusts: NA
Location:  24.33°N, 121.73°E
Report Text: RCSS 241330Z 09001KT 4500 HZ FEW020 22/18 Q1015 NOSIG RMKA2998
Loading
Personal Weather Stations






























Interactive Weather Map New forecast layout! Learn more

10-Day Weather Forecast

Advertisements
Track Severe Weather on mobile